Round Valley, California
Current Conditions -  °F | °C
As of 10:56 AM on Friday 21 Nov 2014 (Local Time) from KBIH Reporting Station
Clear Clear  
Wind Chill: 56°   Ceiling: Unl
Heat Index: 56°   Visibility: 10mi
Dew Point: 24°   Wind: 7mph
Humidity: 29%   Direction: 280°W
Pressure: 30.04"   Gusts: NA
Location:  37.4772°N, 118.401°W
Report Text: KBIH 211856Z AUTO 28006KT 10SM CLR 13/M04 A3004 RMK AO2 SLP151 T01331044
Loading
Personal Weather Stations






























Interactive Weather Map New forecast layout! Learn more

10-Day Weather Forecast

Advertisements
Track Severe Weather on mobile